Time,TemperatureF,DewpointF,PressureIn,WindDirection,WindDirectionDegrees,WindSpeedMPH,WindSpeedGustMPH,Humidity,HourlyPrecipIn,Conditions,Clouds,dailyrainin,SoftwareType,DateUTC
2013-04-02 00:20:00,25.2,17.0,30.08,NNE,21,0.0,-999.0,70,-99.99,,,0.00,weatherlink.com 1.10,2013-04-02 08:20:00,
2013-04-02 00:35:00,24.9,16.0,30.07,NNE,21,0.0,-999.0,70,-99.99,,,0.00,weatherlink.com 1.10,2013-04-02 08:35:00,
2013-04-02 00:50:00,25.3,16.0,30.08,NE,53,0.0,-999.0,68,-99.99,,,0.00,weatherlink.com 1.10,2013-04-02 08:50:00,
2013-04-02 01:06:00,24.5,16.0,30.08,NE,53,0.0,-999.0,70,-99.99,,,0.00,weatherlink.com 1.10,2013-04-02 09:06:00,
2013-04-02 01:20:00,23.4,16.0,30.09,NNE,16,0.0,-999.0,72,-99.99,,,0.00,weatherlink.com 1.10,2013-04-02 09:20:00,
2013-04-02 01:35:00,23.5,16.0,30.09,North,5,0.0,-999.0,72,-99.99,,,0.00,weatherlink.com 1.10,2013-04-02 09:35:00,
2013-04-02 01:50:00,23.3,16.0,30.09,NNE,15,0.0,-999.0,72,-99.99,,,0.00,weatherlink.com 1.10,2013-04-02 09:50:00,
2013-04-02 02:06:00,22.7,15.0,30.10,NNE,15,0.0,-999.0,71,-99.99,,,0.00,weatherlink.com 1.10,2013-04-02 10:06:00,
2013-04-02 02:20:00,22.3,15.0,30.10,NNE,15,0.0,-999.0,72,-99.99,,,0.00,weatherlink.com 1.10,2013-04-02 10:20:00,
2013-04-02 02:35:00,20.7,14.0,30.11,NNE,15,0.0,-999.0,75,-99.99,,,0.00,weatherlink.com 1.10,2013-04-02 10:35:00,
2013-04-02 02:50:00,19.9,14.0,30.11,NNE,15,0.0,-999.0,76,-99.99,,,0.00,weatherlink.com 1.10,2013-04-02 10:50:00,
2013-04-02 03:06:00,18.8,13.0,30.11,NNE,15,0.0,-999.0,78,-99.99,,,0.00,weatherlink.com 1.10,2013-04-02 11:06:00,
2013-04-02 03:20:00,18.3,13.0,30.11,NNE,15,0.0,-999.0,80,-99.99,,,0.00,weatherlink.com 1.10,2013-04-02 11:20:00,
2013-04-02 03:35:00,17.8,13.0,30.11,NNE,15,0.0,-999.0,80,-99.99,,,0.00,weatherlink.com 1.10,2013-04-02 11:35:00,
2013-04-02 03:50:00,16.8,11.0,30.11,NNE,15,0.0,-999.0,79,-99.99,,,0.00,weatherlink.com 1.10,2013-04-02 11:50:00,
2013-04-02 04:06:00,15.6,11.0,30.11,NNE,15,0.0,-999.0,81,-99.99,,,0.00,weatherlink.com 1.10,2013-04-02 12:06:00,
2013-04-02 04:20:00,15.1,11.0,30.11,NNE,15,0.0,-999.0,82,-99.99,,,0.00,weatherlink.com 1.10,2013-04-02 12:20:00,
2013-04-02 04:35:00,14.5,10.0,30.11,NNE,15,0.0,-999.0,83,-99.99,,,0.00,weatherlink.com 1.10,2013-04-02 12:35:00,
2013-04-02 04:50:00,14.4,11.0,30.12,NNE,26,0.0,-999.0,85,-99.99,,,0.00,weatherlink.com 1.10,2013-04-02 12:50:00,
2013-04-02 05:20:00,13.3,10.0,30.12,NNE,26,0.0,-999.0,85,-99.99,,,0.00,weatherlink.com 1.10,2013-04-02 13:20:00,
2013-04-02 05:35:00,13.2,10.0,30.12,NNE,26,0.0,-999.0,86,-99.99,,,0.00,weatherlink.com 1.10,2013-04-02 13:35:00,
2013-04-02 05:50:00,13.1,10.0,30.12,NNE,26,0.0,-999.0,86,-99.99,,,0.00,weatherlink.com 1.10,2013-04-02 13:50:00,
2013-04-02 06:06:00,13.4,10.0,30.12,NNE,26,0.0,-999.0,87,-99.99,,,0.00,weatherlink.com 1.10,2013-04-02 14:06:00,
2013-04-02 06:20:00,13.8,10.0,30.12,NNE,26,0.0,-999.0,86,-99.99,,,0.00,weatherlink.com 1.10,2013-04-02 14:20:00,
2013-04-02 06:35:00,14.1,11.0,30.13,NNE,26,0.0,-999.0,87,-99.99,,,0.00,weatherlink.com 1.10,2013-04-02 14:35:00,
2013-04-02 06:50:00,14.3,11.0,30.12,NNE,26,0.0,-999.0,87,-99.99,,,0.00,weatherlink.com 1.10,2013-04-02 14:50:00,
2013-04-02 07:06:00,14.6,11.0,30.13,NNE,26,0.0,-999.0,85,-99.99,,,0.00,weatherlink.com 1.10,2013-04-02 15:06:00,
2013-04-02 07:20:00,14.6,11.0,30.13,NNE,26,0.0,-999.0,85,-99.99,,,0.00,weatherlink.com 1.10,2013-04-02 15:20:00,
2013-04-02 07:35:00,14.7,11.0,30.13,NNE,26,0.0,-999.0,84,-99.99,,,0.00,weatherlink.com 1.10,2013-04-02 15:35:00,
2013-04-02 07:50:00,14.8,11.0,30.13,NNE,26,0.0,-999.0,84,-99.99,,,0.00,weatherlink.com 1.10,2013-04-02 15:50:00,
2013-04-02 08:06:00,14.8,11.0,30.13,NNE,26,0.0,-999.0,83,-99.99,,,0.00,weatherlink.com 1.10,2013-04-02 16:06:00,
2013-04-02 08:35:00,16.2,12.0,30.14,NNE,26,0.0,-999.0,82,-99.99,,,0.00,weatherlink.com 1.10,2013-04-02 16:35:00,
2013-04-02 08:50:00,16.8,12.0,30.14,NNE,26,0.0,-999.0,81,-99.99,,,0.00,weatherlink.com 1.10,2013-04-02 16:50:00,
2013-04-02 09:06:00,17.5,12.0,30.14,NNE,26,0.0,-999.0,79,-99.99,,,0.00,weatherlink.com 1.10,2013-04-02 17:06:00,
2013-04-02 09:20:00,18.3,12.0,30.14,NNE,26,0.0,-999.0,77,-99.99,,,0.00,weatherlink.com 1.10,2013-04-02 17:20:00,
2013-04-02 09:35:00,20.9,14.0,30.14,NNE,26,0.0,-999.0,73,-99.99,,,0.00,weatherlink.com 1.10,2013-04-02 17:35:00,
2013-04-02 09:50:00,20.2,13.0,30.15,NNE,26,0.0,-999.0,73,-99.99,,,0.00,weatherlink.com 1.10,2013-04-02 17:50:00,
2013-04-02 10:06:00,20.0,13.0,30.15,NNE,26,0.0,-999.0,73,-99.99,,,0.00,weatherlink.com 1.10,2013-04-02 18:06:00,
2013-04-02 10:20:00,20.0,13.0,30.15,NNE,26,0.0,-999.0,74,-99.99,,,0.00,weatherlink.com 1.10,2013-04-02 18:20:00,
2013-04-02 10:35:00,20.3,13.0,30.15,NNE,26,0.0,-999.0,74,-99.99,,,0.00,weatherlink.com 1.10,2013-04-02 18:35:00,
2013-04-02 10:50:00,20.9,14.0,30.15,NNE,26,0.0,-999.0,74,-99.99,,,0.00,weatherlink.com 1.10,2013-04-02 18:50:00,
2013-04-02 11:06:00,21.7,14.0,30.15,NNE,26,0.0,-999.0,73,-99.99,,,0.00,weatherlink.com 1.10,2013-04-02 19:06:00,
2013-04-02 11:20:00,22.0,15.0,30.15,NNE,26,0.0,-999.0,74,-99.99,,,0.00,weatherlink.com 1.10,2013-04-02 19:20:00,
2013-04-02 11:35:00,22.7,15.0,30.15,NNE,26,0.0,-999.0,72,-99.99,,,0.00,weatherlink.com 1.10,2013-04-02 19:35:00,
2013-04-02 11:50:00,23.9,15.0,30.15,NNE,26,0.0,-999.0,70,-99.99,,,0.00,weatherlink.com 1.10,2013-04-02 19:50:00,
2013-04-02 12:06:00,25.3,16.0,30.15,NNE,26,0.0,-999.0,69,-99.99,,,0.00,weatherlink.com 1.10,2013-04-02 20:06:00,
2013-04-02 12:20:00,26.4,17.0,30.16,NNE,26,0.0,-999.0,67,-99.99,,,0.00,weatherlink.com 1.10,2013-04-02 20:20:00,
2013-04-02 12:35:00,27.2,17.0,30.16,NNE,26,0.0,-999.0,65,-99.99,,,0.00,weatherlink.com 1.10,2013-04-02 20:35:00,
2013-04-02 12:50:00,27.9,17.0,30.16,NNE,26,0.0,-999.0,64,-99.99,,,0.00,weatherlink.com 1.10,2013-04-02 20:50:00,
2013-04-02 13:06:00,28.7,17.0,30.16,NNE,26,0.0,-999.0,62,-99.99,,,0.00,weatherlink.com 1.10,2013-04-02 21:06:00,
2013-04-02 13:20:00,29.4,17.0,30.16,NNE,26,0.0,-999.0,61,-99.99,,,0.00,weatherlink.com 1.10,2013-04-02 21:20:00,
2013-04-02 13:35:00,30.2,18.0,30.15,NNE,26,0.0,-999.0,61,-99.99,,,0.00,weatherlink.com 1.10,2013-04-02 21:35:00,
2013-04-02 13:50:00,30.5,18.0,30.16,NNE,26,0.0,-999.0,59,-99.99,,,0.00,weatherlink.com 1.10,2013-04-02 21:50:00,
2013-04-02 14:06:00,30.4,18.0,30.15,NNE,26,0.0,-999.0,60,-99.99,,,0.00,weatherlink.com 1.10,2013-04-02 22:06:00,
2013-04-02 14:20:00,31.3,18.0,30.15,NNE,26,0.0,-999.0,57,-99.99,,,0.00,weatherlink.com 1.10,2013-04-02 22:20:00,
2013-04-02 14:35:00,32.1,19.0,30.15,NNE,26,0.0,-999.0,58,-99.99,,,0.00,weatherlink.com 1.10,2013-04-02 22:35:00,
2013-04-02 14:50:00,32.9,18.0,30.15,NNE,26,0.0,-999.0,55,-99.99,,,0.00,weatherlink.com 1.10,2013-04-02 22:50:00,
2013-04-02 15:06:00,33.0,19.0,30.15,NNE,26,0.0,-999.0,57,-99.99,,,0.00,weatherlink.com 1.10,2013-04-02 23:06:00,
2013-04-02 15:20:00,33.3,19.0,30.15,NNE,26,0.0,-999.0,56,-99.99,,,0.00,weatherlink.com 1.10,2013-04-02 23:20:00,
2013-04-02 15:35:00,33.9,19.0,30.14,NNE,26,0.0,-999.0,55,-99.99,,,0.00,weatherlink.com 1.10,2013-04-02 23:35:00,
2013-04-02 15:50:00,34.3,20.0,30.14,NNE,26,0.0,-999.0,55,-99.99,,,0.00,weatherlink.com 1.10,2013-04-02 23:50:00,
2013-04-02 16:06:00,34.7,19.0,30.14,NNE,26,0.0,-999.0,52,-99.99,,,0.00,weatherlink.com 1.10,2013-04-03 00:06:00,
2013-04-02 16:20:00,34.8,19.0,30.14,NNE,26,0.0,-999.0,53,-99.99,,,0.00,weatherlink.com 1.10,2013-04-03 00:20:00,
2013-04-02 16:35:00,34.7,19.0,30.14,NNE,26,0.0,-999.0,53,-99.99,,,0.00,weatherlink.com 1.10,2013-04-03 00:35:00,
2013-04-02 16:50:00,35.3,20.0,30.14,NNE,26,0.0,-999.0,54,-99.99,,,0.00,weatherlink.com 1.10,2013-04-03 00:50:00,
2013-04-02 17:20:00,34.8,20.0,30.14,NNE,26,0.0,-999.0,56,-99.99,,,0.00,weatherlink.com 1.10,2013-04-03 01:20:00,
2013-04-02 17:35:00,34.6,21.0,30.14,NNE,26,0.0,-999.0,57,-99.99,,,0.00,weatherlink.com 1.10,2013-04-03 01:35:00,
2013-04-02 17:50:00,34.7,21.0,30.13,NNE,26,0.0,-999.0,57,-99.99,,,0.00,weatherlink.com 1.10,2013-04-03 01:50:00,
2013-04-02 18:06:00,35.3,21.0,30.14,NNE,26,0.0,-999.0,57,-99.99,,,0.00,weatherlink.com 1.10,2013-04-03 02:06:00,
2013-04-02 18:20:00,36.4,21.0,30.14,NNE,26,0.0,-999.0,55,-99.99,,,0.00,weatherlink.com 1.10,2013-04-03 02:20:00,
2013-04-02 18:35:00,36.8,21.0,30.14,NNE,26,0.0,-999.0,53,-99.99,,,0.00,weatherlink.com 1.10,2013-04-03 02:35:00,
2013-04-02 18:50:00,36.6,20.0,30.14,NNE,26,0.0,-999.0,52,-99.99,,,0.00,weatherlink.com 1.10,2013-04-03 02:50:00,
2013-04-02 19:06:00,35.9,20.0,30.14,NNE,26,0.0,-999.0,53,-99.99,,,0.00,weatherlink.com 1.10,2013-04-03 03:06:00,
2013-04-02 19:20:00,34.5,18.0,30.13,NNE,32,0.0,-999.0,52,-99.99,,,0.00,weatherlink.com 1.10,2013-04-03 03:20:00,
2013-04-02 19:35:00,33.3,18.0,30.13,WNW,302,0.0,-999.0,54,-99.99,,,0.00,weatherlink.com 1.10,2013-04-03 03:35:00,
2013-04-02 19:50:00,32.6,19.0,30.13,North,360,0.0,-999.0,57,-99.99,,,0.00,weatherlink.com 1.10,2013-04-03 03:50:00,
2013-04-02 20:06:00,31.9,18.0,30.13,NW,308,2.0,-999.0,57,-99.99,,,0.00,weatherlink.com 1.10,2013-04-03 04:06:00,
2013-04-02 20:20:00,31.3,18.0,30.13,NNE,28,0.0,-999.0,59,-99.99,,,0.00,weatherlink.com 1.10,2013-04-03 04:20:00,
2013-04-02 20:35:00,30.8,18.0,30.14,NE,48,2.0,-999.0,60,-99.99,,,0.00,weatherlink.com 1.10,2013-04-03 04:35:00,
2013-04-02 20:50:00,30.4,18.0,30.14,NE,48,1.0,-999.0,61,-99.99,,,0.00,weatherlink.com 1.10,2013-04-03 04:50:00,
2013-04-02 21:20:00,29.5,17.0,30.15,NE,38,0.0,-999.0,60,-99.99,,,0.00,weatherlink.com 1.10,2013-04-03 05:20:00,
2013-04-02 21:35:00,29.2,17.0,30.16,ENE,78,2.0,-999.0,60,-99.99,,,0.00,weatherlink.com 1.10,2013-04-03 05:35:00,
2013-04-02 21:50:00,29.0,16.0,30.16,ENE,57,1.0,-999.0,59,-99.99,,,0.00,weatherlink.com 1.10,2013-04-03 05:50:00,
2013-04-02 22:06:00,28.5,16.0,30.16,ENE,57,0.0,-999.0,59,-99.99,,,0.00,weatherlink.com 1.10,2013-04-03 06:06:00,
2013-04-02 22:20:00,27.9,16.0,30.17,ENE,71,1.0,-999.0,60,-99.99,,,0.00,weatherlink.com 1.10,2013-04-03 06:20:00,
2013-04-02 22:35:00,27.6,16.0,30.17,NE,48,2.0,-999.0,61,-99.99,,,0.00,weatherlink.com 1.10,2013-04-03 06:35:00,
2013-04-02 22:50:00,27.3,15.0,30.17,East,82,0.0,-999.0,60,-99.99,,,0.00,weatherlink.com 1.10,2013-04-03 06:50:00,
2013-04-02 23:06:00,26.7,15.0,30.18,East,82,0.0,-999.0,61,-99.99,,,0.00,weatherlink.com 1.10,2013-04-03 07:06:00,
2013-04-02 23:20:00,26.3,15.0,30.18,ENE,73,0.0,-999.0,62,-99.99,,,0.00,weatherlink.com 1.10,2013-04-03 07:20:00,
2013-04-02 23:36:00,25.9,14.0,30.19,ENE,57,1.0,-999.0,62,-99.99,,,0.00,weatherlink.com 1.10,2013-04-03 07:36:00,
2013-04-02 23:51:00,25.8,14.0,30.20,ENE,63,3.0,-999.0,61,-99.99,,,0.00,weatherlink.com 1.10,2013-04-03 07:51:00,